Local Weather (KHSI) Ticker

20 January 2022

2022/06/27 12:53 KHSI 271253Z AUTO 11004KT 10SM BKN110 18/11 A3037 RMK AO2 SLP273 T01780111

Click below to find out what a METAR file is and how to read it:



Feature Requests: